createdAt,value
2019-02-19T00:00:37.839Z,0
2019-02-19T00:03:30.287Z,0
2019-02-19T00:06:30.676Z,0
2019-02-19T00:09:31.074Z,0
2019-02-19T00:12:30.395Z,0
2019-02-19T00:15:30.758Z,0
2019-02-19T00:18:30.203Z,0
2019-02-19T00:21:30.511Z,0
2019-02-19T00:24:31.021Z,0
2019-02-19T00:27:30.275Z,0
2019-02-19T00:30:30.678Z,0
2019-02-19T00:33:31.081Z,0
2019-02-19T00:36:30.471Z,0
2019-02-19T00:39:30.883Z,0
2019-02-19T00:42:30.221Z,0
2019-02-19T00:45:32.323Z,0
2019-02-19T00:48:30.478Z,0
2019-02-19T00:51:30.737Z,0
2019-02-19T00:54:31.172Z,0
2019-02-19T00:57:30.612Z,0
2019-02-19T01:00:31.186Z,0
2019-02-19T01:03:32.061Z,0
2019-02-19T01:06:30.388Z,0
2019-02-19T01:09:30.887Z,0
2019-02-19T01:12:30.232Z,0
2019-02-19T01:15:30.677Z,0
2019-02-19T01:18:31.033Z,0
2019-02-19T01:21:30.607Z,0
2019-02-19T01:24:31.022Z,0
2019-02-19T01:27:30.370Z,0
2019-02-19T01:30:30.618Z,0
2019-02-19T01:33:31.034Z,0
2019-02-19T01:36:30.324Z,0
2019-02-19T01:39:30.580Z,0
2019-02-19T01:42:31.029Z,0
2019-02-19T01:45:36.563Z,0
2019-02-19T01:48:30.911Z,0
2019-02-19T01:51:30.173Z,0
2019-02-19T01:54:30.625Z,0
2019-02-19T01:57:30.911Z,0
2019-02-19T02:00:30.353Z,0
2019-02-19T02:03:30.701Z,0
2019-02-19T02:06:31.076Z,0
2019-02-19T02:09:30.576Z,0
2019-02-19T02:12:31.127Z,0
2019-02-19T02:15:30.483Z,0
2019-02-19T02:18:30.864Z,0
2019-02-19T02:21:30.273Z,0
2019-02-19T02:24:30.734Z,0
2019-02-19T02:27:30.899Z,0
2019-02-19T02:30:30.450Z,0
2019-02-19T02:33:30.928Z,0
2019-02-19T02:36:30.249Z,0
2019-02-19T02:39:30.565Z,0
2019-02-19T02:42:31.141Z,0
2019-02-19T02:45:30.483Z,0
2019-02-19T02:48:30.827Z,0
2019-02-19T02:51:30.149Z,0
2019-02-19T02:54:30.669Z,0
2019-02-19T02:57:30.917Z,0
2019-02-19T03:00:30.230Z,0
2019-02-19T03:03:30.607Z,0
2019-02-19T03:07:12.639Z,0
2019-02-19T03:09:30.956Z,0
2019-02-19T03:12:30.375Z,0
2019-02-19T03:15:30.651Z,0
2019-02-19T03:18:31.088Z,0
2019-02-19T03:21:30.357Z,0
2019-02-19T03:24:30.543Z,0
2019-02-19T03:27:30.856Z,0
2019-02-19T03:30:30.270Z,0
2019-02-19T03:33:30.824Z,0
2019-02-19T03:36:30.311Z,0
2019-02-19T03:39:30.534Z,0
2019-02-19T03:42:30.924Z,0
2019-02-19T03:45:30.401Z,0
2019-02-19T03:48:31.096Z,0
2019-02-19T03:51:30.541Z,0
2019-02-19T03:54:30.952Z,0
2019-02-19T03:57:30.714Z,0
2019-02-19T04:00:31.132Z,0
2019-02-19T04:03:30.819Z,0
2019-02-19T04:06:32.417Z,0
2019-02-19T04:09:30.870Z,0
2019-02-19T04:12:30.406Z,0
2019-02-19T04:15:30.762Z,0
2019-02-19T04:18:30.302Z,0
2019-02-19T04:21:30.742Z,0
2019-02-19T04:24:31.102Z,0
2019-02-19T04:27:30.442Z,0
2019-02-19T04:30:30.923Z,0
2019-02-19T04:33:30.353Z,0
2019-02-19T04:36:30.724Z,0
2019-02-19T04:39:31.091Z,0
2019-02-19T04:42:30.531Z,0
2019-02-19T04:45:30.990Z,0
2019-02-19T04:48:30.547Z,0
2019-02-19T04:51:30.819Z,0
2019-02-19T04:54:30.407Z,0
2019-02-19T04:57:30.753Z,0
2019-02-19T05:00:31.044Z,0
2019-02-19T05:03:30.398Z,0
2019-02-19T05:06:30.986Z,0
2019-02-19T05:09:30.306Z,0
2019-02-19T05:12:30.640Z,0
2019-02-19T05:15:31.046Z,0
2019-02-19T05:18:30.609Z,0
2019-02-19T05:21:31.116Z,0
2019-02-19T05:24:30.678Z,0
2019-02-19T05:27:30.654Z,0
2019-02-19T05:30:30.959Z,0
2019-02-19T05:33:30.416Z,0
2019-02-19T05:36:30.708Z,0
2019-02-19T05:39:31.083Z,0
2019-02-19T05:42:30.509Z,0
2019-02-19T05:45:31.139Z,0
2019-02-19T05:48:30.786Z,0
2019-02-19T05:51:30.380Z,0
2019-02-19T05:54:31.175Z,0
2019-02-19T05:57:30.659Z,0
2019-02-19T06:00:31.108Z,0
2019-02-19T06:03:30.767Z,1
2019-02-19T06:06:30.708Z,1
2019-02-19T06:09:31.448Z,2
2019-02-19T06:12:30.935Z,5
2019-02-19T06:15:30.513Z,10
2019-02-19T06:18:31.251Z,18
2019-02-19T06:21:30.720Z,32
2019-02-19T06:24:31.345Z,52
2019-02-19T06:27:30.980Z,78
2019-02-19T06:30:30.596Z,96
2019-02-19T06:33:31.172Z,130
2019-02-19T06:36:30.595Z,131
2019-02-19T06:39:31.110Z,163
2019-02-19T06:42:30.701Z,188
2019-02-19T06:45:31.297Z,270
2019-02-19T06:48:30.883Z,320
2019-02-19T06:51:30.455Z,361
2019-02-19T06:54:31.029Z,331
2019-02-19T06:57:30.592Z,357
2019-02-19T07:00:31.091Z,453
2019-02-19T07:03:36.676Z,472
2019-02-19T07:06:33.152Z,438
2019-02-19T07:09:30.735Z,398
2019-02-19T07:12:31.137Z,511
2019-02-19T07:15:30.583Z,651
2019-02-19T07:18:31.248Z,824
2019-02-19T07:21:30.830Z,971
2019-02-19T07:24:30.352Z,624
2019-02-19T07:27:30.700Z,582
2019-02-19T07:30:31.425Z,311
2019-02-19T07:33:30.829Z,314
2019-02-19T07:36:30.675Z,270
2019-02-19T07:39:31.299Z,282
2019-02-19T07:42:30.732Z,292
2019-02-19T07:45:31.267Z,296
2019-02-19T07:48:30.760Z,397
2019-02-19T07:51:31.335Z,542
2019-02-19T07:54:31.024Z,580
2019-02-19T07:57:30.550Z,588
2019-02-19T08:00:30.957Z,802
2019-02-19T08:03:30.421Z,1003
2019-02-19T08:06:31.155Z,1398
2019-02-19T08:09:30.711Z,1813
2019-02-19T08:12:31.371Z,2075
2019-02-19T08:15:30.791Z,2223
2019-02-19T08:18:30.436Z,1632
2019-02-19T08:21:30.775Z,1064
2019-02-19T08:24:31.279Z,952
2019-02-19T08:27:30.842Z,1022
2019-02-19T08:30:30.491Z,1402
2019-02-19T08:33:30.936Z,1696
2019-02-19T08:36:32.296Z,2052
2019-02-19T08:39:30.813Z,1556
2019-02-19T08:42:30.358Z,1144
2019-02-19T08:45:31.071Z,1010
2019-02-19T08:48:30.527Z,1068
2019-02-19T08:51:31.083Z,1674
2019-02-19T08:54:30.743Z,1962
2019-02-19T08:57:31.009Z,1430
2019-02-19T09:00:30.348Z,2202
2019-02-19T09:03:32.505Z,2988
2019-02-19T09:06:31.194Z,2992
2019-02-19T09:09:30.725Z,2592
2019-02-19T09:12:31.216Z,2937
2019-02-19T09:15:30.967Z,2783
2019-02-19T09:18:30.952Z,2788
2019-02-19T09:21:30.696Z,2616
2019-02-19T09:24:31.354Z,2074
2019-02-19T09:27:30.917Z,1508
2019-02-19T09:30:30.719Z,1593
2019-02-19T09:33:31.269Z,1444
2019-02-19T09:36:30.737Z,1292
2019-02-19T09:39:31.309Z,1228
2019-02-19T09:42:30.905Z,1080
2019-02-19T09:45:30.843Z,1268
2019-02-19T09:48:30.672Z,1462
2019-02-19T09:51:31.279Z,1362
2019-02-19T09:54:30.867Z,1498
2019-02-19T09:57:32.533Z,1816
2019-02-19T10:00:31.463Z,2154
2019-02-19T10:03:31.238Z,3146
2019-02-19T10:06:30.932Z,4805
2019-02-19T10:09:30.638Z,6982
2019-02-19T10:12:31.379Z,8672
2019-02-19T10:15:31.197Z,8872
2019-02-19T10:18:30.861Z,8265
2019-02-19T10:21:30.367Z,12112
2019-02-19T10:24:31.130Z,17745
2019-02-19T10:27:35.915Z,9887
2019-02-19T10:30:35.501Z,12328
2019-02-19T10:33:31.308Z,16675
2019-02-19T10:36:31.121Z,9012
2019-02-19T10:39:30.675Z,7869
2019-02-19T10:42:31.227Z,9679
2019-02-19T10:45:31.031Z,10149
2019-02-19T10:48:35.008Z,18862
2019-02-19T10:51:30.813Z,20713
2019-02-19T10:54:30.656Z,13428
2019-02-19T10:57:31.449Z,13387
2019-02-19T11:00:31.362Z,14270
2019-02-19T11:03:31.133Z,12107
2019-02-19T11:06:31.116Z,11841
2019-02-19T11:09:30.724Z,10713
2019-02-19T11:12:31.369Z,9465
2019-02-19T11:15:33.049Z,41790
2019-02-19T11:18:31.444Z,49622
2019-02-19T11:21:35.482Z,54612
2019-02-19T11:24:30.903Z,54612
2019-02-19T11:27:32.489Z,15423
2019-02-19T11:30:31.294Z,21582
2019-02-19T11:33:30.934Z,37152
2019-02-19T11:36:30.932Z,39130
2019-02-19T11:39:30.745Z,32304
2019-02-19T11:42:31.493Z,39569
2019-02-19T11:45:30.978Z,40024
2019-02-19T11:48:39.453Z,14662
2019-02-19T11:51:31.025Z,11972
2019-02-19T11:54:30.642Z,12543
2019-02-19T11:57:31.432Z,12550
2019-02-19T12:00:37.360Z,13974
2019-02-19T12:03:31.012Z,10132
2019-02-19T12:06:30.683Z,10466
2019-02-19T12:09:31.280Z,14515
2019-02-19T12:12:30.739Z,15556
2019-02-19T12:15:37.947Z,12842
2019-02-19T12:18:30.773Z,11721
2019-02-19T12:21:31.298Z,9802
2019-02-19T12:24:31.022Z,8768
2019-02-19T12:27:30.895Z,7508
2019-02-19T12:30:30.757Z,7291
2019-02-19T12:33:31.566Z,6682
2019-02-19T12:36:31.271Z,7744
2019-02-19T12:39:30.987Z,6641
2019-02-19T12:42:30.530Z,7258
2019-02-19T12:45:31.143Z,7544
2019-02-19T12:48:30.713Z,7092
2019-02-19T12:51:31.429Z,9829
2019-02-19T12:54:36.225Z,6175
2019-02-19T12:57:31.049Z,8844
2019-02-19T13:00:31.175Z,5340
2019-02-19T13:03:30.952Z,3794
2019-02-19T13:06:30.625Z,4134
2019-02-19T13:09:31.218Z,3657
2019-02-19T13:12:30.818Z,4535
2019-02-19T13:15:30.439Z,6159
2019-02-19T13:18:31.386Z,8304
2019-02-19T13:21:31.331Z,7034
2019-02-19T13:24:31.122Z,6870
2019-02-19T13:27:31.663Z,6732
2019-02-19T13:30:31.503Z,6658
2019-02-19T13:33:31.172Z,6625
2019-02-19T13:36:33.771Z,5680
2019-02-19T13:39:31.299Z,6439
2019-02-19T13:42:30.963Z,2779
2019-02-19T13:45:30.794Z,2925
2019-02-19T13:48:30.433Z,3519
2019-02-19T13:51:31.000Z,7371
2019-02-19T13:54:37.044Z,7222
2019-02-19T13:57:30.714Z,4218
2019-02-19T14:00:32.198Z,6478
2019-02-19T14:03:31.028Z,2798
2019-02-19T14:06:30.933Z,2672
2019-02-19T14:09:30.679Z,2773
2019-02-19T14:12:31.274Z,3250
2019-02-19T14:16:46.823Z,2702
2019-02-19T14:18:50.495Z,6235
2019-02-19T14:21:55.512Z,6804
2019-02-19T14:24:42.133Z,3241
2019-02-19T14:27:38.243Z,4970
2019-02-19T14:30:43.146Z,6247
2019-02-19T14:33:51.728Z,5598
2019-02-19T14:36:47.916Z,5759
2019-02-19T14:39:39.596Z,3514
2019-02-19T14:42:57.128Z,2582
2019-02-19T14:45:46.593Z,2780
2019-02-19T14:50:30.414Z,2488
2019-02-19T14:52:03.077Z,2682
2019-02-19T14:54:44.826Z,3753
2019-02-19T14:57:45.642Z,2360
2019-02-19T15:00:59.655Z,2216
2019-02-19T15:03:45.286Z,3944
2019-02-19T15:06:42.414Z,2214
2019-02-19T15:11:44.662Z,2208
2019-02-19T15:15:19.190Z,3229
2019-02-19T15:15:39.391Z,2898
2019-02-19T15:18:42.902Z,2621
2019-02-19T15:22:59.877Z,3067
2019-02-19T15:24:39.281Z,2939
2019-02-19T15:28:11.228Z,2859
2019-02-19T15:30:55.593Z,2685
2019-02-19T15:33:55.639Z,2594
2019-02-19T15:37:03.229Z,2490
2019-02-19T15:39:50.099Z,2379
2019-02-19T15:42:42.501Z,2301
2019-02-19T15:45:58.529Z,2232
2019-02-19T15:48:42.372Z,2122
2019-02-19T15:51:39.807Z,2042
2019-02-19T15:55:44.375Z,1946
2019-02-19T15:59:41.968Z,1822
2019-02-19T16:01:43.178Z,1691
2019-02-19T16:03:43.035Z,1632
2019-02-19T16:06:39.351Z,1580
2019-02-19T16:10:10.875Z,1488
2019-02-19T16:12:40.769Z,1365
2019-02-19T16:17:42.432Z,1283
2019-02-19T16:18:38.298Z,1097
2019-02-19T16:23:40.701Z,1064
2019-02-19T16:24:41.885Z,903
2019-02-19T16:27:38.622Z,872
2019-02-19T16:32:38.350Z,788
2019-02-19T16:33:55.103Z,625
2019-02-19T16:36:38.678Z,582
2019-02-19T16:39:45.865Z,485
2019-02-19T16:42:44.324Z,400
2019-02-19T16:46:41.959Z,322
2019-02-19T16:48:41.376Z,229
2019-02-19T16:52:43.398Z,191
2019-02-19T16:54:36.400Z,123
2019-02-19T16:58:12.298Z,99
2019-02-19T17:02:40.715Z,62
2019-02-19T17:04:10.339Z,32
2019-02-19T17:06:43.274Z,27
2019-02-19T17:09:37.236Z,18
2019-02-19T17:13:09.375Z,10
2019-02-19T17:17:41.736Z,5
2019-02-19T17:18:37.704Z,2
2019-02-19T17:21:42.035Z,2
2019-02-19T17:24:39.115Z,1
2019-02-19T17:28:42.042Z,0
2019-02-19T17:32:42.761Z,0
2019-02-19T17:33:41.658Z,0
2019-02-19T17:36:39.262Z,0
2019-02-19T17:39:42.260Z,0
2019-02-19T17:42:37.787Z,0
2019-02-19T17:45:44.099Z,0
2019-02-19T17:49:09.007Z,0
2019-02-19T17:53:42.293Z,0
2019-02-19T17:54:36.780Z,0
2019-02-19T17:57:39.573Z,0
2019-02-19T18:00:43.089Z,0
2019-02-19T18:03:49.108Z,0
2019-02-19T18:06:40.943Z,0
2019-02-19T18:09:38.226Z,0
2019-02-19T18:13:12.256Z,0
2019-02-19T18:17:41.019Z,0
2019-02-19T18:18:47.007Z,0
2019-02-19T18:21:21.552Z,0
2019-02-19T18:24:31.532Z,0
2019-02-19T18:27:31.158Z,0
2019-02-19T18:30:30.741Z,0
2019-02-19T18:33:31.303Z,0
2019-02-19T18:36:30.813Z,0
2019-02-19T18:39:30.353Z,0
2019-02-19T18:42:30.991Z,0
2019-02-19T18:45:30.521Z,0
2019-02-19T18:48:30.983Z,0
2019-02-19T18:51:21.737Z,0
2019-02-19T18:54:31.383Z,0
2019-02-19T18:57:30.807Z,0
2019-02-19T19:00:30.363Z,0
2019-02-19T19:03:30.857Z,0
2019-02-19T19:06:30.209Z,0
2019-02-19T19:09:30.721Z,0
2019-02-19T19:12:31.179Z,0
2019-02-19T19:15:30.678Z,0
2019-02-19T19:18:31.210Z,0
2019-02-19T19:21:30.817Z,0
2019-02-19T19:24:30.556Z,0
2019-02-19T19:27:30.954Z,0
2019-02-19T19:30:30.683Z,0
2019-02-19T19:33:31.201Z,0
2019-02-19T19:36:30.876Z,0
2019-02-19T19:39:30.512Z,0
2019-02-19T19:42:30.976Z,0
2019-02-19T19:45:30.662Z,0
2019-02-19T19:51:33.017Z,0
2019-02-19T19:54:30.642Z,0
2019-02-19T19:57:31.269Z,0
2019-02-19T20:00:30.849Z,0
2019-02-19T20:03:30.566Z,0
2019-02-19T20:06:31.021Z,0
2019-02-19T20:09:30.682Z,0
2019-02-19T20:12:31.457Z,0
2019-02-19T20:15:31.067Z,0
2019-02-19T20:18:38.750Z,0
2019-02-19T20:21:30.892Z,0
2019-02-19T20:24:30.562Z,0
2019-02-19T20:27:22.230Z,0
2019-02-19T20:30:30.720Z,0
2019-02-19T20:33:31.348Z,0
2019-02-19T20:36:30.790Z,0
2019-02-19T20:39:30.425Z,0
2019-02-19T20:42:31.024Z,0
2019-02-19T20:45:30.801Z,0
2019-02-19T20:48:30.336Z,0
2019-02-19T20:51:38.796Z,0
2019-02-19T20:54:30.362Z,0
2019-02-19T20:57:30.947Z,0
2019-02-19T21:00:30.540Z,0
2019-02-19T21:03:31.155Z,0
2019-02-19T21:06:30.906Z,0
2019-02-19T21:09:30.369Z,0
2019-02-19T21:12:30.706Z,0
2019-02-19T21:15:31.547Z,0
2019-02-19T21:18:31.085Z,0
2019-02-19T21:21:30.776Z,0
2019-02-19T21:24:32.797Z,0
2019-02-19T21:27:30.189Z,0
2019-02-19T21:30:30.625Z,0
2019-02-19T21:33:31.027Z,0
2019-02-19T21:36:30.654Z,0
2019-02-19T21:39:31.123Z,0
2019-02-19T21:42:30.769Z,0
2019-02-19T21:45:31.185Z,0
2019-02-19T21:48:30.536Z,0
2019-02-19T21:51:31.013Z,0
2019-02-19T21:54:30.424Z,0
2019-02-19T21:57:30.775Z,0
2019-02-19T22:00:31.140Z,0
2019-02-19T22:03:30.708Z,0
2019-02-19T22:06:31.153Z,0
2019-02-19T22:09:30.768Z,0
2019-02-19T22:12:31.228Z,0
2019-02-19T22:15:30.693Z,0
2019-02-19T22:18:31.274Z,0
2019-02-19T22:21:39.794Z,0
2019-02-19T22:24:40.361Z,0
2019-02-19T22:27:30.856Z,0
2019-02-19T22:30:30.271Z,0
2019-02-19T22:33:30.737Z,0
2019-02-19T22:36:31.276Z,0
2019-02-19T22:39:30.861Z,0
2019-02-19T22:42:30.225Z,0
2019-02-19T22:45:30.707Z,0
2019-02-19T22:48:31.193Z,0
2019-02-19T22:51:30.575Z,0
2019-02-19T22:54:58.223Z,0
2019-02-19T23:02:41.988Z,0
2019-02-19T23:03:32.035Z,0
2019-02-19T23:06:30.683Z,0
2019-02-19T23:09:31.375Z,0
2019-02-19T23:12:31.142Z,0
2019-02-19T23:15:30.602Z,0
2019-02-19T23:18:31.190Z,0
2019-02-19T23:21:30.922Z,0
2019-02-19T23:24:30.783Z,0
2019-02-19T23:27:31.479Z,0
2019-02-19T23:30:22.068Z,0
2019-02-19T23:33:30.686Z,0
2019-02-19T23:36:38.978Z,0
2019-02-19T23:39:30.424Z,0
2019-02-19T23:42:31.111Z,0
2019-02-19T23:45:30.688Z,0
2019-02-19T23:48:31.203Z,0
2019-02-19T23:51:30.590Z,0
2019-02-19T23:54:31.060Z,0
2019-02-19T23:57:30.807Z,0
